ΕΜΥ, Εθνική Μετεωρολογική Υπηρεσία - Δελτία Καιρού, Προγνώσεις

ΑΕΡΟΝΑΥΤΙΛΙΑ

GREEK AIRPORTS CODES

TAF LGST 141100Z 1412/1421 30015KT 9999 FEW025 SCT080=

EUROPEAN AIRPORTS CODES

LFPO 141330Z 18003KT 140V240 9999 SCT018 BKN026 07/03 Q0998NOSIG=